createdAt,value
2023-02-16T00:01:30.289Z,16.98
2023-02-16T00:03:57.424Z,16.30
2023-02-16T00:06:25.529Z,22.10
2023-02-16T00:08:55.278Z,16.75
2023-02-16T00:11:28.409Z,20.45
2023-02-16T00:13:54.704Z,20.73
2023-02-16T00:16:23.488Z,22.52
2023-02-16T00:18:50.836Z,23.67
2023-02-16T00:21:17.916Z,21.80
2023-02-16T00:23:44.633Z,22.13
2023-02-16T00:26:25.763Z,24.00
2023-02-16T00:28:54.396Z,24.25
2023-02-16T00:31:25.833Z,23.67
2023-02-16T00:33:52.149Z,25.42
2023-02-16T00:36:18.569Z,21.05
2023-02-16T00:38:44.896Z,26.40
2023-02-16T00:41:19.942Z,22.92
2023-02-16T00:43:46.283Z,21.45
2023-02-16T00:46:12.612Z,23.05
2023-02-16T00:48:38.898Z,25.20
2023-02-16T00:51:16.834Z,24.05
2023-02-16T00:53:46.712Z,23.20
2023-02-16T00:56:19.704Z,23.25
2023-02-16T00:58:46.771Z,26.08
2023-02-16T01:01:15.763Z,23.38
2023-02-16T01:03:43.841Z,25.10
2023-02-16T01:06:11.617Z,23.45
2023-02-16T01:08:37.876Z,25.33
2023-02-16T01:11:07.457Z,23.75
2023-02-16T01:13:43.407Z,25.05
2023-02-16T01:16:31.594Z,24.77
2023-02-16T01:18:57.877Z,25.15
2023-02-16T01:21:24.183Z,22.92
2023-02-16T01:23:50.499Z,23.35
2023-02-16T01:26:18.818Z,24.80
2023-02-16T01:28:45.599Z,23.38
2023-02-16T01:31:13.467Z,23.52
2023-02-16T01:33:41.276Z,25.05
2023-02-16T01:36:23.303Z,24.20
2023-02-16T01:38:49.884Z,22.75
2023-02-16T01:41:53.512Z,21.38
2023-02-16T01:44:24.467Z,21.77
2023-02-16T01:47:04.292Z,24.83
2023-02-16T01:49:30.982Z,20.63
2023-02-16T01:52:06.594Z,20.55
2023-02-16T01:54:40.709Z,20.90
2023-02-16T01:57:41.094Z,21.85
2023-02-16T02:00:17.607Z,21.40
2023-02-16T02:02:52.396Z,20.13
2023-02-16T02:05:26.006Z,21.83
2023-02-16T02:08:20.023Z,21.65
2023-02-16T02:11:18.090Z,18.60
2023-02-16T02:13:50.856Z,20.52
2023-02-16T02:16:22.232Z,19.42
2023-02-16T02:18:48.958Z,19.85
2023-02-16T02:21:44.006Z,20.88
2023-02-16T02:24:29.095Z,20.50
2023-02-16T02:27:26.827Z,18.48
2023-02-16T02:30:30.949Z,18.02
2023-02-16T02:33:34.359Z,17.58
2023-02-16T02:36:16.455Z,19.60
2023-02-16T02:39:29.794Z,19.67
2023-02-16T02:42:08.783Z,16.45
2023-02-16T02:45:07.183Z,18.90
2023-02-16T02:50:37.593Z,17.65
2023-02-16T02:53:15.668Z,17.33
2023-02-16T02:55:49.147Z,15.98
2023-02-16T02:58:16.603Z,15.65
2023-02-16T03:00:45.404Z,21.10
2023-02-16T03:03:17.416Z,18.35
2023-02-16T03:05:48.748Z,19.48
2023-02-16T03:08:19.291Z,18.90
2023-02-16T03:10:50.760Z,19.48
2023-02-16T03:13:32.281Z,20.17
2023-02-16T03:16:01.461Z,18.75
2023-02-16T03:18:28.524Z,18.75
2023-02-16T03:20:56.470Z,18.70
2023-02-16T03:23:22.898Z,21.83
2023-02-16T03:25:51.872Z,19.02
2023-02-16T03:28:20.672Z,20.25
2023-02-16T03:30:47.646Z,19.52
2023-02-16T03:33:14.844Z,21.63
2023-02-16T03:35:41.936Z,20.15
2023-02-16T03:38:08.656Z,18.40
2023-02-16T03:40:36.008Z,20.45
2023-02-16T03:43:05.663Z,20.45
2023-02-16T03:45:37.109Z,19.05
2023-02-16T03:48:04.141Z,19.42
2023-02-16T03:50:30.532Z,20.48
2023-02-16T03:52:57.984Z,21.23
2023-02-16T03:55:24.273Z,21.13
2023-02-16T03:57:50.558Z,20.13
2023-02-16T04:00:17.204Z,20.95
2023-02-16T04:02:43.515Z,20.45
2023-02-16T04:05:09.797Z,21.73
2023-02-16T04:07:36.118Z,22.10
2023-02-16T04:10:02.407Z,20.77
2023-02-16T04:12:28.692Z,21.92
2023-02-16T04:14:54.985Z,21.98
2023-02-16T04:17:21.403Z,21.15
2023-02-16T04:19:47.676Z,22.05
2023-02-16T04:22:14.025Z,23.77
2023-02-16T04:24:40.340Z,23.42
2023-02-16T04:27:06.657Z,22.15
2023-02-16T04:29:32.944Z,22.90
2023-02-16T04:31:59.409Z,24.25
2023-02-16T04:34:25.754Z,23.73
2023-02-16T04:36:52.032Z,23.73
2023-02-16T04:39:18.391Z,23.95
2023-02-16T04:41:44.668Z,23.60
2023-02-16T04:44:10.952Z,24.58
2023-02-16T04:46:37.223Z,22.73
2023-02-16T04:49:03.512Z,24.10
2023-02-16T04:51:29.800Z,23.10
2023-02-16T04:54:00.655Z,22.33
2023-02-16T04:56:26.999Z,23.63
2023-02-16T04:58:53.437Z,22.33
2023-02-16T05:01:24.959Z,24.80
2023-02-16T05:03:51.337Z,23.85
2023-02-16T05:06:17.828Z,22.05
2023-02-16T05:08:44.487Z,22.42
2023-02-16T05:11:11.130Z,23.48
2023-02-16T05:13:37.495Z,24.42
2023-02-16T05:16:04.051Z,24.33
2023-02-16T05:18:30.381Z,23.00
2023-02-16T05:20:56.716Z,24.38
2023-02-16T05:23:23.006Z,21.25
2023-02-16T05:25:49.306Z,23.50
2023-02-16T05:28:16.717Z,23.67
2023-02-16T05:30:43.043Z,22.67
2023-02-16T05:33:09.392Z,24.27
2023-02-16T05:35:35.765Z,22.65
2023-02-16T05:38:02.032Z,21.85
2023-02-16T05:40:28.382Z,22.58
2023-02-16T05:42:55.483Z,21.70
2023-02-16T05:45:21.795Z,22.60
2023-02-16T05:47:48.110Z,24.10
2023-02-16T05:50:14.463Z,21.95
2023-02-16T05:52:40.741Z,21.17
2023-02-16T05:55:07.091Z,22.80
2023-02-16T05:57:33.361Z,21.83
2023-02-16T05:59:59.635Z,22.13
2023-02-16T06:02:25.941Z,21.80
2023-02-16T06:04:52.514Z,22.65
2023-02-16T06:07:18.785Z,21.00
2023-02-16T06:09:45.080Z,21.25
2023-02-16T06:12:11.364Z,20.90
2023-02-16T06:14:37.647Z,19.92
2023-02-16T06:17:03.923Z,22.42
2023-02-16T06:19:30.213Z,21.40
2023-02-16T06:21:56.504Z,21.73
2023-02-16T06:24:22.781Z,21.98
2023-02-16T06:26:49.097Z,20.35
2023-02-16T06:29:15.367Z,19.50
2023-02-16T06:31:41.791Z,19.27
2023-02-16T06:34:08.234Z,21.40
2023-02-16T06:36:34.789Z,22.23
2023-02-16T06:39:01.095Z,22.15
2023-02-16T06:41:27.432Z,21.23
2023-02-16T06:43:53.723Z,20.65
2023-02-16T06:46:20.078Z,22.08
2023-02-16T06:48:46.378Z,19.88
2023-02-16T06:51:16.292Z,23.00
2023-02-16T06:53:42.625Z,21.83
2023-02-16T06:56:08.945Z,22.13
2023-02-16T06:58:35.227Z,22.05
2023-02-16T07:01:01.620Z,23.42
2023-02-16T07:03:28.018Z,22.10
2023-02-16T07:05:54.285Z,19.50
2023-02-16T07:08:20.600Z,20.83
2023-02-16T07:10:50.455Z,20.42
2023-02-16T07:13:16.984Z,20.05
2023-02-16T07:15:43.290Z,17.98
2023-02-16T07:18:09.605Z,18.95
2023-02-16T07:20:35.941Z,17.90
2023-02-16T07:23:02.234Z,18.70
2023-02-16T07:25:28.600Z,19.52
2023-02-16T07:27:54.975Z,19.25
2023-02-16T07:30:21.567Z,18.50
2023-02-16T07:32:48.027Z,17.92
2023-02-16T07:35:14.320Z,18.38
2023-02-16T07:37:40.577Z,17.90
2023-02-16T07:40:07.572Z,17.30
2023-02-16T07:42:33.911Z,20.27
2023-02-16T07:45:00.204Z,19.65
2023-02-16T07:47:26.592Z,19.83
2023-02-16T07:49:52.884Z,19.23
2023-02-16T07:52:19.154Z,19.95
2023-02-16T07:54:45.530Z,18.77
2023-02-16T07:57:11.814Z,19.50
2023-02-16T07:59:38.132Z,21.75
2023-02-16T08:02:04.457Z,25.45
2023-02-16T08:04:30.805Z,22.10
2023-02-16T08:06:57.236Z,21.73
2023-02-16T08:09:23.658Z,19.17
2023-02-16T08:11:49.933Z,19.10
2023-02-16T08:14:16.388Z,16.83
2023-02-16T08:16:42.688Z,17.85
2023-02-16T08:19:08.989Z,17.73
2023-02-16T08:21:35.337Z,17.65
2023-02-16T08:24:04.618Z,16.77
2023-02-16T08:26:39.394Z,19.45
2023-02-16T08:29:07.342Z,18.20
2023-02-16T08:31:35.286Z,19.08
2023-02-16T08:34:02.633Z,19.27
2023-02-16T08:36:34.955Z,19.42
2023-02-16T08:39:04.648Z,19.40
2023-02-16T08:41:33.689Z,17.42
2023-02-16T08:44:00.482Z,17.52
2023-02-16T08:46:28.056Z,17.80
2023-02-16T08:48:59.232Z,12.07
2023-02-16T08:51:27.544Z,18.08
2023-02-16T08:53:54.729Z,15.82
2023-02-16T08:56:21.028Z,16.80
2023-02-16T08:58:47.308Z,9.40
2023-02-16T09:01:14.218Z,13.50
2023-02-16T09:03:42.435Z,16.77
2023-02-16T09:06:11.033Z,12.93
2023-02-16T09:08:37.484Z,8.90
2023-02-16T09:11:09.166Z,11.15
2023-02-16T09:13:36.840Z,18.33
2023-02-16T09:16:07.708Z,16.15
2023-02-16T09:18:33.994Z,15.52
2023-02-16T09:21:07.817Z,16.95
2023-02-16T09:23:34.553Z,19.27
2023-02-16T09:26:01.457Z,12.80
2023-02-16T09:28:28.901Z,17.70
2023-02-16T09:30:55.221Z,18.83
2023-02-16T09:33:21.701Z,17.95
2023-02-16T09:35:48.068Z,16.83
2023-02-16T09:38:14.391Z,13.80
2023-02-16T09:40:40.708Z,17.98
2023-02-16T09:43:31.043Z,17.30
2023-02-16T09:45:57.943Z,15.35
2023-02-16T09:48:45.320Z,13.45
2023-02-16T09:51:34.840Z,19.23
2023-02-16T09:54:22.640Z,15.45
2023-02-16T09:56:57.820Z,19.20
2023-02-16T09:59:24.083Z,17.60
2023-02-16T10:02:00.256Z,19.05
2023-02-16T10:04:54.575Z,16.48
2023-02-16T10:07:32.774Z,13.00
2023-02-16T10:10:02.565Z,19.25
2023-02-16T10:12:36.920Z,16.58
2023-02-16T10:15:12.672Z,20.67
2023-02-16T10:17:46.172Z,18.70
2023-02-16T10:20:18.554Z,13.65
2023-02-16T10:22:54.065Z,19.33
2023-02-16T10:25:28.469Z,17.90
2023-02-16T10:28:07.531Z,18.55
2023-02-16T10:30:33.895Z,16.58
2023-02-16T10:33:17.018Z,19.88
2023-02-16T10:35:48.963Z,17.17
2023-02-16T10:38:44.392Z,17.65
2023-02-16T10:41:27.180Z,17.17
2023-02-16T10:44:02.299Z,18.75
2023-02-16T10:46:34.109Z,18.70
2023-02-16T10:49:00.784Z,19.42
2023-02-16T10:51:33.381Z,19.95
2023-02-16T10:54:05.299Z,20.00
2023-02-16T10:56:47.457Z,15.95
2023-02-16T10:59:24.075Z,20.52
2023-02-16T11:01:57.229Z,20.33
2023-02-16T11:04:41.536Z,19.02
2023-02-16T11:07:11.256Z,17.13
2023-02-16T11:09:39.496Z,19.17
2023-02-16T11:12:18.062Z,18.80
2023-02-16T11:14:51.334Z,17.10
2023-02-16T11:17:20.615Z,16.85
2023-02-16T11:20:03.019Z,19.40
2023-02-16T11:22:38.807Z,18.70
2023-02-16T11:25:25.694Z,16.10
2023-02-16T11:27:58.395Z,19.10
2023-02-16T11:30:32.476Z,18.88
2023-02-16T11:33:01.580Z,20.90
2023-02-16T11:35:30.359Z,16.90
2023-02-16T11:37:56.686Z,19.63
2023-02-16T11:40:32.976Z,19.48
2023-02-16T11:43:01.774Z,17.85
2023-02-16T11:45:31.439Z,17.33
2023-02-16T11:48:03.003Z,20.95
2023-02-16T11:50:35.239Z,18.58
2023-02-16T11:53:10.645Z,15.00
2023-02-16T11:55:40.027Z,21.55
2023-02-16T11:58:22.515Z,16.33
2023-02-16T12:01:26.723Z,21.25
2023-02-16T12:04:12.446Z,19.17
2023-02-16T12:06:56.763Z,19.73
2023-02-16T12:09:34.488Z,19.23
2023-02-16T12:12:15.801Z,18.13
2023-02-16T12:15:14.379Z,17.92
2023-02-16T12:18:24.103Z,18.42
2023-02-16T12:21:08.529Z,18.85
2023-02-16T12:23:43.342Z,18.20
2023-02-16T12:26:27.961Z,17.63
2023-02-16T12:29:15.516Z,18.50
2023-02-16T12:32:14.124Z,17.48
2023-02-16T12:34:48.545Z,17.13
2023-02-16T12:37:36.957Z,16.25
2023-02-16T12:40:31.270Z,19.77
2023-02-16T12:43:25.551Z,17.52
2023-02-16T12:45:55.709Z,19.15
2023-02-16T12:48:34.016Z,19.48
2023-02-16T12:51:03.435Z,19.75
2023-02-16T12:53:45.321Z,19.65
2023-02-16T12:56:19.422Z,17.88
2023-02-16T12:58:49.385Z,18.05
2023-02-16T13:01:33.284Z,17.23
2023-02-16T13:04:17.865Z,17.98
2023-02-16T13:07:02.054Z,17.02
2023-02-16T13:09:41.301Z,16.27
2023-02-16T13:12:31.404Z,13.98
2023-02-16T13:15:20.173Z,18.98
2023-02-16T13:17:52.800Z,16.80
2023-02-16T13:20:21.481Z,15.00
2023-02-16T13:22:59.194Z,15.73
2023-02-16T13:25:46.261Z,18.30
2023-02-16T13:28:50.216Z,16.90
2023-02-16T13:31:40.547Z,17.23
2023-02-16T13:34:27.786Z,16.52
2023-02-16T13:37:14.451Z,15.57
2023-02-16T13:39:56.390Z,18.48
2023-02-16T13:42:46.516Z,15.00
2023-02-16T13:45:23.934Z,15.27
2023-02-16T13:47:53.120Z,16.92
2023-02-16T13:50:22.138Z,15.05
2023-02-16T13:52:52.501Z,15.73
2023-02-16T13:55:34.518Z,15.98
2023-02-16T13:58:14.121Z,15.88
2023-02-16T14:00:48.122Z,14.13
2023-02-16T14:03:17.540Z,16.83
2023-02-16T14:05:46.242Z,17.23
2023-02-16T14:08:17.334Z,15.73
2023-02-16T14:10:52.885Z,17.83
2023-02-16T14:13:48.818Z,16.52
2023-02-16T14:16:18.282Z,16.08
2023-02-16T14:19:24.945Z,14.18
2023-02-16T14:21:52.138Z,15.75
2023-02-16T14:24:37.793Z,15.88
2023-02-16T14:27:11.829Z,15.25
2023-02-16T14:30:01.375Z,16.35
2023-02-16T14:32:33.936Z,16.48
2023-02-16T14:35:13.995Z,13.85
2023-02-16T14:37:58.319Z,14.05
2023-02-16T14:40:33.877Z,14.43
2023-02-16T14:43:04.539Z,10.60
2023-02-16T14:46:12.319Z,13.68
2023-02-16T14:49:05.565Z,13.88
2023-02-16T14:51:38.784Z,14.07
2023-02-16T14:54:10.956Z,16.05
2023-02-16T14:56:42.684Z,14.35
2023-02-16T14:59:28.463Z,14.23
2023-02-16T15:01:54.848Z,14.38
2023-02-16T15:04:29.516Z,13.25
2023-02-16T15:06:57.910Z,15.23
2023-02-16T15:09:30.236Z,15.50
2023-02-16T15:12:04.663Z,13.95
2023-02-16T15:14:35.156Z,14.27
2023-02-16T15:17:07.349Z,15.10
2023-02-16T15:19:33.747Z,14.63
2023-02-16T15:22:10.460Z,14.55
2023-02-16T15:24:36.907Z,13.88
2023-02-16T15:27:03.169Z,13.68
2023-02-16T15:29:29.941Z,14.48
2023-02-16T15:31:59.247Z,15.30
2023-02-16T15:34:32.780Z,15.70
2023-02-16T15:39:43.676Z,13.98
2023-02-16T15:42:26.837Z,15.88
2023-02-16T15:44:53.208Z,14.57
2023-02-16T15:47:25.142Z,14.20
2023-02-16T15:49:52.578Z,13.63
2023-02-16T15:52:35.647Z,13.55
2023-02-16T15:55:05.674Z,13.93
2023-02-16T15:57:35.716Z,15.10
2023-02-16T16:00:20.685Z,13.00
2023-02-16T16:02:50.091Z,14.27
2023-02-16T16:05:24.539Z,15.07
2023-02-16T16:07:51.283Z,13.45
2023-02-16T16:10:36.307Z,15.00
2023-02-16T16:13:06.513Z,13.60
2023-02-16T16:15:40.032Z,14.70
2023-02-16T16:18:06.400Z,16.35
2023-02-16T16:20:37.312Z,16.83
2023-02-16T16:23:25.014Z,15.35
2023-02-16T16:25:51.846Z,15.63
2023-02-16T16:28:27.170Z,14.15
2023-02-16T16:31:12.442Z,16.15
2023-02-16T16:34:03.464Z,16.67
2023-02-16T16:36:37.386Z,16.45
2023-02-16T16:39:11.121Z,14.90
2023-02-16T16:41:37.901Z,16.88
2023-02-16T16:44:04.468Z,14.68
2023-02-16T16:46:31.285Z,15.52
2023-02-16T16:49:00.854Z,16.88
2023-02-16T16:51:27.058Z,13.80
2023-02-16T16:53:55.874Z,15.05
2023-02-16T16:56:23.815Z,14.40
2023-02-16T16:58:52.278Z,16.00
2023-02-16T17:01:20.599Z,15.45
2023-02-16T17:03:47.362Z,14.98
2023-02-16T17:06:14.502Z,16.42
2023-02-16T17:08:41.081Z,16.13
2023-02-16T17:11:08.448Z,14.15
2023-02-16T17:13:35.124Z,14.27
2023-02-16T17:16:08.354Z,14.68
2023-02-16T17:18:34.769Z,14.50
2023-02-16T17:21:01.066Z,15.73
2023-02-16T17:23:27.427Z,16.05
2023-02-16T17:25:53.779Z,15.45
2023-02-16T17:28:20.430Z,16.02
2023-02-16T17:30:46.807Z,14.60
2023-02-16T17:33:13.173Z,13.73
2023-02-16T17:35:42.113Z,15.60
2023-02-16T17:38:20.292Z,16.13
2023-02-16T17:40:48.727Z,15.27
2023-02-16T17:43:15.873Z,15.27
2023-02-16T17:45:43.392Z,15.70
2023-02-16T17:48:20.058Z,16.63
2023-02-16T17:50:46.957Z,14.15
2023-02-16T17:53:15.685Z,16.73
2023-02-16T17:55:43.275Z,16.42
2023-02-16T17:58:10.903Z,17.65
2023-02-16T18:00:37.550Z,18.63
2023-02-16T18:03:04.846Z,17.75
2023-02-16T18:05:31.542Z,17.92
2023-02-16T18:07:58.034Z,18.90
2023-02-16T18:10:43.452Z,17.65
2023-02-16T18:13:10.673Z,16.02
2023-02-16T18:15:38.771Z,17.40
2023-02-16T18:18:05.860Z,16.98
2023-02-16T18:20:32.301Z,17.58
2023-02-16T18:22:58.627Z,16.63
2023-02-16T18:25:24.968Z,15.20
2023-02-16T18:27:51.479Z,15.20
2023-02-16T18:30:17.945Z,15.02
2023-02-16T18:32:44.387Z,16.20
2023-02-16T18:35:11.744Z,17.45
2023-02-16T18:37:38.760Z,17.33
2023-02-16T18:40:08.228Z,16.83
2023-02-16T18:42:35.792Z,17.25
2023-02-16T18:45:02.519Z,15.85
2023-02-16T18:47:29.114Z,16.73
2023-02-16T18:49:55.398Z,17.38
2023-02-16T18:52:22.066Z,14.43
2023-02-16T18:54:48.358Z,15.85
2023-02-16T18:57:14.645Z,15.82
2023-02-16T18:59:41.071Z,16.20
2023-02-16T19:02:07.923Z,15.63
2023-02-16T19:04:34.522Z,15.48
2023-02-16T19:07:00.834Z,11.98
2023-02-16T19:09:27.108Z,15.40
2023-02-16T19:11:53.532Z,14.48
2023-02-16T19:14:19.857Z,14.50
2023-02-16T19:16:46.646Z,15.40
2023-02-16T19:19:12.949Z,15.52
2023-02-16T19:21:39.549Z,15.38
2023-02-16T19:24:07.155Z,13.45
2023-02-16T19:26:33.679Z,15.30
2023-02-16T19:29:00.036Z,13.13
2023-02-16T19:31:29.788Z,14.88
2023-02-16T19:33:57.721Z,12.40
2023-02-16T19:36:25.555Z,16.42
2023-02-16T19:38:52.320Z,15.63
2023-02-16T19:41:22.246Z,13.65
2023-02-16T19:43:49.187Z,14.45
2023-02-16T19:46:16.082Z,15.55
2023-02-16T19:48:42.467Z,15.65
2023-02-16T19:51:10.228Z,15.07
2023-02-16T19:53:37.562Z,16.10
2023-02-16T19:56:09.317Z,15.20
2023-02-16T19:58:35.722Z,15.75
2023-02-16T20:01:16.704Z,15.80
2023-02-16T20:03:43.584Z,14.88
2023-02-16T20:06:17.736Z,14.52
2023-02-16T20:08:45.971Z,16.67
2023-02-16T20:11:13.190Z,14.77
2023-02-16T20:13:39.481Z,15.45
2023-02-16T20:16:08.010Z,13.98
2023-02-16T20:18:35.229Z,12.50
2023-02-16T20:21:06.810Z,12.73
2023-02-16T20:23:33.674Z,16.00
2023-02-16T20:26:00.421Z,12.35
